Map

Track Data

SID SEASON NUMBER BASIN SUBBASIN NAME ISO_TIME NATURE LAT LON WMO_WIND WMO_PRES WMO_AGENCY TRACK_TYPE DIST2LAND LANDFALL IFLAG USA_AGENCY USA_ATCF_ID USA_LAT USA_LON USA_RECORD USA_STATUS USA_WIND USA_PRES USA_SSHS USA_R34_NE USA_R34_SE USA_R34_SW USA_R34_NW USA_R50_NE USA_R50_SE USA_R50_SW USA_R50_NW USA_R64_NE USA_R64_SE USA_R64_SW USA_R64_NW USA_POCI USA_ROCI USA_RMW USA_EYE TOKYO_LAT TOKYO_LON TOKYO_GRADE TOKYO_WIND TOKYO_PRES TOKYO_R50_DIR TOKYO_R50_LONG TOKYO_R50_SHORT TOKYO_R30_DIR TOKYO_R30_LONG TOKYO_R30_SHORT TOKYO_LAND CMA_LAT CMA_LON CMA_CAT CMA_WIND CMA_PRES HKO_LAT HKO_LON HKO_CAT HKO_WIND HKO_PRES NEWDELHI_LAT NEWDELHI_LON NEWDELHI_GRADE NEWDELHI_WIND NEWDELHI_PRES NEWDELHI_CI NEWDELHI_DP NEWDELHI_POCI REUNION_LAT REUNION_LON REUNION_TYPE REUNION_WIND REUNION_PRES REUNION_TNUM REUNION_CI REUNION_RMW REUNION_R34_NE REUNION_R34_SE REUNION_R34_SW REUNION_R34_NW REUNION_R50_NE REUNION_R50_SE REUNION_R50_SW REUNION_R50_NW REUNION_R64_NE REUNION_R64_SE REUNION_R64_SW REUNION_R64_NW BOM_LAT BOM_LON BOM_TYPE BOM_WIND BOM_PRES BOM_TNUM BOM_CI BOM_RMW BOM_R34_NE BOM_R34_SE BOM_R34_SW BOM_R34_NW BOM_R50_NE BOM_R50_SE BOM_R50_SW BOM_R50_NW BOM_R64_NE BOM_R64_SE BOM_R64_SW BOM_R64_NW BOM_ROCI BOM_POCI BOM_EYE BOM_POS_METHOD BOM_PRES_METHOD NADI_LAT NADI_LON NADI_CAT NADI_WIND NADI_PRES WELLINGTON_LAT WELLINGTON_LON WELLINGTON_WIND WELLINGTON_PRES DS824_LAT DS824_LON DS824_STAGE DS824_WIND DS824_PRES TD9636_LAT TD9636_LON TD9636_STAGE TD9636_WIND TD9636_PRES TD9635_LAT TD9635_LON TD9635_WIND TD9635_PRES TD9635_ROCI NEUMANN_LAT NEUMANN_LON NEUMANN_CLASS NEUMANN_WIND NEUMANN_PRES MLC_LAT MLC_LON MLC_CLASS MLC_WIND MLC_PRES USA_GUST BOM_GUST BOM_GUST_PER REUNION_GUST REUNION_GUST_PER USA_SEAHGT USA_SEARAD_NE USA_SEARAD_SE USA_SEARAD_SW USA_SEARAD_NW STORM_SPEED STORM_DIR
1904107S14119 1904 10 SI WA NOT_NAMED 1904-04-15 12:00:00 NR -13.8000 119.300 main 413 409 __________O___ -1 -13.8000 119.300 7 3 103
1904107S14119 1904 10 SI WA NOT_NAMED 1904-04-15 15:00:00 NR -13.8313 119.441 main 409 406 __________P___ -1 -13.8313 119.441 7 3 106
1904107S14119 1904 10 SI WA NOT_NAMED 1904-04-15 18:00:00 NR -13.8801 119.585 main 414 412 __________P___ -1 -13.8801 119.585 7 3 115
1904107S14119 1904 10 SI WA NOT_NAMED 1904-04-15 21:00:00 NR -13.9638 119.737 main 423 418 __________P___ -1 -13.9638 119.737 7 4 126
1904107S14119 1904 10 SI WA NOT_NAMED 1904-04-16 00:00:00 NR -14.1000 119.900 main 418 387 __________O___ -1 -14.1000 119.900 7 5 135
1904107S14119 1904 10 SI WA NOT_NAMED 1904-04-16 03:00:00 NR -14.2996 120.077 main 387 356 __________P___ -1 -14.2996 120.077 7 6 141
1904107S14119 1904 10 SI WA NOT_NAMED 1904-04-16 06:00:00 NR -14.5474 120.270 main 356 317 __________P___ -1 -14.5474 120.270 7 7 143
1904107S14119 1904 10 SI WA NOT_NAMED 1904-04-16 09:00:00 NR -14.8215 120.478 main 317 278 __________P___ -1 -14.8215 120.478 7 7 143
1904107S14119 1904 10 SI WA NOT_NAMED 1904-04-16 12:00:00 NR -15.1000 120.700 main 278 247 __________O___ -1 -15.1000 120.700 7 7 140
1904107S14119 1904 10 SI WA NOT_NAMED 1904-04-16 15:00:00 NR -15.3500 120.944 main 239 201 __________P___ -1 -15.3500 120.944 7 7 136
1904107S14119 1904 10 SI WA NOT_NAMED 1904-04-16 18:00:00 NR -15.6001 121.200 main 201 170 __________P___ -1 -15.6001 121.200 7 7 135
1904107S14119 1904 10 SI WA NOT_NAMED 1904-04-16 21:00:00 NR -15.8501 121.456 main 154 123 __________P___ -1 -15.8501 121.456 7 7 136
1904107S14119 1904 10 SI WA NOT_NAMED 1904-04-17 00:00:00 NR -16.1000 121.700 main 123 92 __________O___ -1 -16.1000 121.700 7 7 138
1904107S14119 1904 10 SI WA NOT_NAMED 1904-04-17 03:00:00 NR -16.3458 121.915 main 92 54 __________P___ -1 -16.3458 121.915 7 6 141
1904107S14119 1904 10 SI WA NOT_NAMED 1904-04-17 06:00:00 NR -16.5923 122.115 main 54 24 __________P___ -1 -16.5923 122.115 7 6 143
1904107S14119 1904 10 SI WA NOT_NAMED 1904-04-17 09:00:00 NR -16.8427 122.308 main 24 0 __________P___ -1 -16.8427 122.308 7 6 144
1904107S14119 1904 10 SI WA NOT_NAMED 1904-04-17 12:00:00 NR -17.1000 122.500 main 0 0 __________O___ -1 -17.1000 122.500 7 6 145
1904107S14119 1904 10 SI WA NOT_NAMED 1904-04-17 15:00:00 NR -17.3664 122.695 main 0 0 __________P___ -1 -17.3664 122.695 7 7 145
1904107S14119 1904 10 SI WA NOT_NAMED 1904-04-17 18:00:00 NR -17.6402 122.894 main 0 0 __________P___ -1 -17.6402 122.894 7 7 145
1904107S14119 1904 10 SI WA NOT_NAMED 1904-04-17 21:00:00 NR -17.9189 123.096 main 0 0 __________P___ -1 -17.9189 123.096 7 7 145
1904107S14119 1904 10 SI WA NOT_NAMED 1904-04-18 00:00:00 NR -18.2000 123.300 main 0 __________O___ -1 -18.2000 123.300 7 7 146

About IBTrACS Database

This database is a web-friendly format of International Best Track Archive for Climate Stewardship (IBTrACS), a global best track data archive curated by NOAA dating back to 1842.

Updated: 2021-10-25